sensor_id;sensor_type;location;lat;lon;timestamp;temperature;humidity
18876;DHT22;9570;50.854;13.778;2022-10-16T00:00:42;12.90;99.90
18876;DHT22;9570;50.854;13.778;2022-10-16T00:03:08;13.00;99.90
18876;DHT22;9570;50.854;13.778;2022-10-16T00:05:39;12.90;99.90
18876;DHT22;9570;50.854;13.778;2022-10-16T00:08:05;12.90;99.90
18876;DHT22;9570;50.854;13.778;2022-10-16T00:10:31;12.90;99.90
18876;DHT22;9570;50.854;13.778;2022-10-16T00:12:56;12.90;99.90
18876;DHT22;9570;50.854;13.778;2022-10-16T00:15:22;13.00;99.90
18876;DHT22;9570;50.854;13.778;2022-10-16T00:17:47;12.90;99.90
18876;DHT22;9570;50.854;13.778;2022-10-16T00:20:13;12.90;99.90
18876;DHT22;9570;50.854;13.778;2022-10-16T00:22:38;12.90;99.90
18876;DHT22;9570;50.854;13.778;2022-10-16T00:25:05;12.90;99.90
18876;DHT22;9570;50.854;13.778;2022-10-16T00:27:30;12.90;99.90
18876;DHT22;9570;50.854;13.778;2022-10-16T00:29:56;12.90;99.90
18876;DHT22;9570;50.854;13.778;2022-10-16T00:32:22;12.90;99.90
18876;DHT22;9570;50.854;13.778;2022-10-16T00:34:47;12.90;99.90
18876;DHT22;9570;50.854;13.778;2022-10-16T00:37:13;13.00;99.90
18876;DHT22;9570;50.854;13.778;2022-10-16T00:39:38;13.00;99.90
18876;DHT22;9570;50.854;13.778;2022-10-16T00:42:04;13.00;99.90
18876;DHT22;9570;50.854;13.778;2022-10-16T00:47:30;13.00;99.90
18876;DHT22;9570;50.854;13.778;2022-10-16T00:50:05;13.10;99.90
18876;DHT22;9570;50.854;13.778;2022-10-16T00:52:32;13.00;99.90
18876;DHT22;9570;50.854;13.778;2022-10-16T00:54:58;13.00;99.90
18876;DHT22;9570;50.854;13.778;2022-10-16T00:57:24;13.00;99.90
18876;DHT22;9570;50.854;13.778;2022-10-16T00:59:50;13.00;99.90
18876;DHT22;9570;50.854;13.778;2022-10-16T01:02:17;13.00;99.90
18876;DHT22;9570;50.854;13.778;2022-10-16T01:04:52;13.00;99.90
18876;DHT22;9570;50.854;13.778;2022-10-16T01:07:58;13.00;99.90
18876;DHT22;9570;50.854;13.778;2022-10-16T01:10:43;13.00;99.90
18876;DHT22;9570;50.854;13.778;2022-10-16T01:13:23;13.00;99.90
18876;DHT22;9570;50.854;13.778;2022-10-16T01:16:08;13.00;99.90
18876;DHT22;9570;50.854;13.778;2022-10-16T01:18:43;13.00;99.90
18876;DHT22;9570;50.854;13.778;2022-10-16T01:29:20;12.80;99.90
18876;DHT22;9570;50.854;13.778;2022-10-16T01:31:54;12.90;99.90
18876;DHT22;9570;50.854;13.778;2022-10-16T01:34:32;12.90;99.90
18876;DHT22;9570;50.854;13.778;2022-10-16T01:37:05;12.90;99.90
18876;DHT22;9570;50.854;13.778;2022-10-16T01:39:32;12.80;99.90
18876;DHT22;9570;50.854;13.778;2022-10-16T01:42:05;12.80;99.90
18876;DHT22;9570;50.854;13.778;2022-10-16T01:44:33;12.80;99.90
18876;DHT22;9570;50.854;13.778;2022-10-16T01:47:01;12.80;99.90
18876;DHT22;9570;50.854;13.778;2022-10-16T01:49:31;12.80;99.90
18876;DHT22;9570;50.854;13.778;2022-10-16T01:52:00;12.80;99.90
18876;DHT22;9570;50.854;13.778;2022-10-16T01:54:28;12.80;99.90
18876;DHT22;9570;50.854;13.778;2022-10-16T01:56:56;12.80;99.90
18876;DHT22;9570;50.854;13.778;2022-10-16T01:59:25;12.80;99.90
18876;DHT22;9570;50.854;13.778;2022-10-16T02:01:59;12.90;99.90
18876;DHT22;9570;50.854;13.778;2022-10-16T02:04:36;12.80;99.90
18876;DHT22;9570;50.854;13.778;2022-10-16T02:07:03;12.80;99.90
18876;DHT22;9570;50.854;13.778;2022-10-16T02:09:30;12.80;99.90
18876;DHT22;9570;50.854;13.778;2022-10-16T02:11:59;12.80;99.90
18876;DHT22;9570;50.854;13.778;2022-10-16T02:14:28;12.80;99.90
18876;DHT22;9570;50.854;13.778;2022-10-16T02:16:54;12.90;99.90
18876;DHT22;9570;50.854;13.778;2022-10-16T02:19:20;12.90;99.90
18876;DHT22;9570;50.854;13.778;2022-10-16T02:21:58;13.00;99.90
18876;DHT22;9570;50.854;13.778;2022-10-16T02:24:52;13.00;99.90
18876;DHT22;9570;50.854;13.778;2022-10-16T02:27:38;13.10;99.90
18876;DHT22;9570;50.854;13.778;2022-10-16T02:30:18;13.10;99.90
18876;DHT22;9570;50.854;13.778;2022-10-16T02:32:48;13.20;99.90
18876;DHT22;9570;50.854;13.778;2022-10-16T02:35:17;13.20;99.90
18876;DHT22;9570;50.854;13.778;2022-10-16T02:37:43;13.20;99.90
18876;DHT22;9570;50.854;13.778;2022-10-16T02:40:10;13.20;99.90
18876;DHT22;9570;50.854;13.778;2022-10-16T02:42:38;13.20;99.90
18876;DHT22;9570;50.854;13.778;2022-10-16T02:45:08;13.30;99.90
18876;DHT22;9570;50.854;13.778;2022-10-16T02:47:34;13.30;99.90
18876;DHT22;9570;50.854;13.778;2022-10-16T02:50:00;13.30;99.90
18876;DHT22;9570;50.854;13.778;2022-10-16T02:52:25;13.30;99.90
18876;DHT22;9570;50.854;13.778;2022-10-16T02:54:51;13.30;99.90
18876;DHT22;9570;50.854;13.778;2022-10-16T02:57:17;13.30;99.90
18876;DHT22;9570;50.854;13.778;2022-10-16T02:59:44;13.40;99.90
18876;DHT22;9570;50.854;13.778;2022-10-16T03:02:10;13.30;99.90
18876;DHT22;9570;50.854;13.778;2022-10-16T03:04:35;13.40;99.90
18876;DHT22;9570;50.854;13.778;2022-10-16T03:07:01;13.40;99.90
18876;DHT22;9570;50.854;13.778;2022-10-16T03:09:26;13.30;99.90
18876;DHT22;9570;50.854;13.778;2022-10-16T03:11:52;13.30;99.90
18876;DHT22;9570;50.854;13.778;2022-10-16T03:14:17;13.30;99.90
18876;DHT22;9570;50.854;13.778;2022-10-16T03:16:43;13.30;99.90
18876;DHT22;9570;50.854;13.778;2022-10-16T03:19:08;13.40;99.90
18876;DHT22;9570;50.854;13.778;2022-10-16T03:21:34;13.30;99.90
18876;DHT22;9570;50.854;13.778;2022-10-16T03:23:59;13.30;99.90
18876;DHT22;9570;50.854;13.778;2022-10-16T03:26:25;13.30;99.90
18876;DHT22;9570;50.854;13.778;2022-10-16T03:28:50;13.30;99.90
18876;DHT22;9570;50.854;13.778;2022-10-16T03:31:16;13.30;99.90
18876;DHT22;9570;50.854;13.778;2022-10-16T03:33:41;13.30;99.90
18876;DHT22;9570;50.854;13.778;2022-10-16T03:36:07;13.30;99.90
18876;DHT22;9570;50.854;13.778;2022-10-16T03:38:32;13.30;99.90
18876;DHT22;9570;50.854;13.778;2022-10-16T03:40:58;13.30;99.90
18876;DHT22;9570;50.854;13.778;2022-10-16T03:43:24;13.30;99.90
18876;DHT22;9570;50.854;13.778;2022-10-16T03:45:52;13.30;99.90
18876;DHT22;9570;50.854;13.778;2022-10-16T03:48:19;13.30;99.90
18876;DHT22;9570;50.854;13.778;2022-10-16T03:50:44;13.30;99.90
18876;DHT22;9570;50.854;13.778;2022-10-16T03:53:11;13.40;99.90
18876;DHT22;9570;50.854;13.778;2022-10-16T03:55:36;13.40;99.90
18876;DHT22;9570;50.854;13.778;2022-10-16T03:58:02;13.50;99.90
18876;DHT22;9570;50.854;13.778;2022-10-16T04:00:28;13.50;99.90
18876;DHT22;9570;50.854;13.778;2022-10-16T04:02:54;13.50;99.90
18876;DHT22;9570;50.854;13.778;2022-10-16T04:05:19;13.50;99.90
18876;DHT22;9570;50.854;13.778;2022-10-16T04:07:45;13.50;99.90
18876;DHT22;9570;50.854;13.778;2022-10-16T04:10:10;13.50;99.90
18876;DHT22;9570;50.854;13.778;2022-10-16T04:12:36;13.50;99.90
18876;DHT22;9570;50.854;13.778;2022-10-16T04:15:02;13.50;99.90
18876;DHT22;9570;50.854;13.778;2022-10-16T04:17:28;13.50;99.90
18876;DHT22;9570;50.854;13.778;2022-10-16T04:19:53;13.50;99.90
18876;DHT22;9570;50.854;13.778;2022-10-16T04:22:19;13.50;99.90
18876;DHT22;9570;50.854;13.778;2022-10-16T04:24:44;13.50;99.90
18876;DHT22;9570;50.854;13.778;2022-10-16T04:27:10;13.50;99.90
18876;DHT22;9570;50.854;13.778;2022-10-16T04:29:35;13.50;99.90
18876;DHT22;9570;50.854;13.778;2022-10-16T04:32:01;13.50;99.90
18876;DHT22;9570;50.854;13.778;2022-10-16T04:34:26;13.50;99.90
18876;DHT22;9570;50.854;13.778;2022-10-16T04:36:52;13.40;99.90
18876;DHT22;9570;50.854;13.778;2022-10-16T04:39:17;13.40;99.90
18876;DHT22;9570;50.854;13.778;2022-10-16T04:41:43;13.40;99.90
18876;DHT22;9570;50.854;13.778;2022-10-16T04:44:08;13.40;99.90
18876;DHT22;9570;50.854;13.778;2022-10-16T04:46:34;13.40;99.90
18876;DHT22;9570;50.854;13.778;2022-10-16T04:48:59;13.40;99.90
18876;DHT22;9570;50.854;13.778;2022-10-16T04:51:25;13.40;99.90
18876;DHT22;9570;50.854;13.778;2022-10-16T04:53:52;13.40;99.90
18876;DHT22;9570;50.854;13.778;2022-10-16T04:56:17;13.40;99.90
18876;DHT22;9570;50.854;13.778;2022-10-16T04:58:43;13.40;99.90
18876;DHT22;9570;50.854;13.778;2022-10-16T05:01:08;13.40;99.90
18876;DHT22;9570;50.854;13.778;2022-10-16T05:03:34;13.40;99.90
18876;DHT22;9570;50.854;13.778;2022-10-16T05:06:00;13.40;99.90
18876;DHT22;9570;50.854;13.778;2022-10-16T05:08:25;13.40;99.90
18876;DHT22;9570;50.854;13.778;2022-10-16T05:10:51;13.40;99.90
18876;DHT22;9570;50.854;13.778;2022-10-16T05:13:16;13.40;99.90
18876;DHT22;9570;50.854;13.778;2022-10-16T05:15:42;13.30;99.90
18876;DHT22;9570;50.854;13.778;2022-10-16T05:18:08;13.30;99.90
18876;DHT22;9570;50.854;13.778;2022-10-16T05:20:34;13.30;99.90
18876;DHT22;9570;50.854;13.778;2022-10-16T05:23:00;13.30;99.90
18876;DHT22;9570;50.854;13.778;2022-10-16T05:25:25;13.30;99.90
18876;DHT22;9570;50.854;13.778;2022-10-16T05:27:51;13.40;99.90
18876;DHT22;9570;50.854;13.778;2022-10-16T05:30:17;13.40;99.90
18876;DHT22;9570;50.854;13.778;2022-10-16T05:32:47;13.30;99.90
18876;DHT22;9570;50.854;13.778;2022-10-16T05:35:13;13.40;99.90
18876;DHT22;9570;50.854;13.778;2022-10-16T05:37:39;13.40;99.90
18876;DHT22;9570;50.854;13.778;2022-10-16T05:40:05;13.40;99.90
18876;DHT22;9570;50.854;13.778;2022-10-16T05:42:30;13.40;99.90
18876;DHT22;9570;50.854;13.778;2022-10-16T05:44:56;13.40;99.90
18876;DHT22;9570;50.854;13.778;2022-10-16T05:47:21;13.40;99.90
18876;DHT22;9570;50.854;13.778;2022-10-16T05:49:47;13.40;99.90
18876;DHT22;9570;50.854;13.778;2022-10-16T05:52:12;13.40;99.90
18876;DHT22;9570;50.854;13.778;2022-10-16T05:54:38;13.40;99.90
18876;DHT22;9570;50.854;13.778;2022-10-16T05:57:03;13.40;99.90
18876;DHT22;9570;50.854;13.778;2022-10-16T05:59:31;13.40;99.90
18876;DHT22;9570;50.854;13.778;2022-10-16T06:01:56;13.40;99.90
18876;DHT22;9570;50.854;13.778;2022-10-16T06:04:22;13.50;99.90
18876;DHT22;9570;50.854;13.778;2022-10-16T06:06:47;13.40;99.90
18876;DHT22;9570;50.854;13.778;2022-10-16T06:09:13;13.40;99.90
18876;DHT22;9570;50.854;13.778;2022-10-16T06:11:38;13.50;99.90
18876;DHT22;9570;50.854;13.778;2022-10-16T06:14:04;13.50;99.90
18876;DHT22;9570;50.854;13.778;2022-10-16T06:16:33;13.60;99.90
18876;DHT22;9570;50.854;13.778;2022-10-16T06:18:59;13.60;99.90
18876;DHT22;9570;50.854;13.778;2022-10-16T06:21:26;13.60;99.90
18876;DHT22;9570;50.854;13.778;2022-10-16T06:23:52;13.60;99.90
18876;DHT22;9570;50.854;13.778;2022-10-16T06:26:20;13.60;99.90
18876;DHT22;9570;50.854;13.778;2022-10-16T06:28:47;13.70;99.90
18876;DHT22;9570;50.854;13.778;2022-10-16T06:31:13;13.80;99.90
18876;DHT22;9570;50.854;13.778;2022-10-16T06:33:39;13.80;99.90
18876;DHT22;9570;50.854;13.778;2022-10-16T06:36:07;13.80;99.90
18876;DHT22;9570;50.854;13.778;2022-10-16T06:38:34;13.90;99.90
18876;DHT22;9570;50.854;13.778;2022-10-16T06:41:00;13.90;99.90
18876;DHT22;9570;50.854;13.778;2022-10-16T06:43:28;14.00;99.90
18876;DHT22;9570;50.854;13.778;2022-10-16T06:45:56;14.10;99.90
18876;DHT22;9570;50.854;13.778;2022-10-16T06:48:22;14.20;99.90
18876;DHT22;9570;50.854;13.778;2022-10-16T06:51:15;14.30;99.90
18876;DHT22;9570;50.854;13.778;2022-10-16T06:53:43;14.30;99.90
18876;DHT22;9570;50.854;13.778;2022-10-16T06:56:26;14.30;99.90
18876;DHT22;9570;50.854;13.778;2022-10-16T06:58:52;14.40;99.90
18876;DHT22;9570;50.854;13.778;2022-10-16T07:01:21;14.50;99.90
18876;DHT22;9570;50.854;13.778;2022-10-16T07:03:47;14.70;99.90
18876;DHT22;9570;50.854;13.778;2022-10-16T07:06:15;14.70;99.90
18876;DHT22;9570;50.854;13.778;2022-10-16T07:08:42;14.80;99.90
18876;DHT22;9570;50.854;13.778;2022-10-16T07:11:11;14.90;99.90
18876;DHT22;9570;50.854;13.778;2022-10-16T07:13:39;14.90;99.90
18876;DHT22;9570;50.854;13.778;2022-10-16T07:18:32;15.00;99.90
18876;DHT22;9570;50.854;13.778;2022-10-16T07:21:04;15.10;99.90
18876;DHT22;9570;50.854;13.778;2022-10-16T07:23:29;15.30;99.90
18876;DHT22;9570;50.854;13.778;2022-10-16T07:25:55;15.40;99.90
18876;DHT22;9570;50.854;13.778;2022-10-16T07:28:21;15.50;99.90
18876;DHT22;9570;50.854;13.778;2022-10-16T07:30:47;15.60;99.90
18876;DHT22;9570;50.854;13.778;2022-10-16T07:33:13;15.60;99.90
18876;DHT22;9570;50.854;13.778;2022-10-16T07:35:50;15.70;99.90
18876;DHT22;9570;50.854;13.778;2022-10-16T07:38:16;15.80;99.90
18876;DHT22;9570;50.854;13.778;2022-10-16T07:40:42;15.90;99.90
18876;DHT22;9570;50.854;13.778;2022-10-16T07:43:07;16.10;99.90
18876;DHT22;9570;50.854;13.778;2022-10-16T07:45:33;16.40;99.90
18876;DHT22;9570;50.854;13.778;2022-10-16T07:47:58;16.60;99.90
18876;DHT22;9570;50.854;13.778;2022-10-16T07:50:24;17.10;99.90
18876;DHT22;9570;50.854;13.778;2022-10-16T07:52:49;17.80;99.90
18876;DHT22;9570;50.854;13.778;2022-10-16T07:55:15;17.90;99.90
18876;DHT22;9570;50.854;13.778;2022-10-16T07:57:40;17.70;99.90
18876;DHT22;9570;50.854;13.778;2022-10-16T08:00:06;17.50;99.90
18876;DHT22;9570;50.854;13.778;2022-10-16T08:02:32;17.40;99.90
18876;DHT22;9570;50.854;13.778;2022-10-16T08:04:57;17.40;99.90
18876;DHT22;9570;50.854;13.778;2022-10-16T08:07:23;17.30;99.90
18876;DHT22;9570;50.854;13.778;2022-10-16T08:09:51;17.30;99.90
18876;DHT22;9570;50.854;13.778;2022-10-16T08:12:17;17.20;99.90
18876;DHT22;9570;50.854;13.778;2022-10-16T08:14:43;17.20;99.90
18876;DHT22;9570;50.854;13.778;2022-10-16T08:17:08;17.10;99.90
18876;DHT22;9570;50.854;13.778;2022-10-16T08:19:34;17.20;99.90
18876;DHT22;9570;50.854;13.778;2022-10-16T08:22:00;17.30;99.90
18876;DHT22;9570;50.854;13.778;2022-10-16T08:24:26;17.40;99.90
18876;DHT22;9570;50.854;13.778;2022-10-16T08:26:53;17.40;99.90
18876;DHT22;9570;50.854;13.778;2022-10-16T08:29:19;17.40;99.90
18876;DHT22;9570;50.854;13.778;2022-10-16T08:31:45;17.40;99.90
18876;DHT22;9570;50.854;13.778;2022-10-16T08:34:10;17.40;99.90
18876;DHT22;9570;50.854;13.778;2022-10-16T08:36:36;17.50;99.90
18876;DHT22;9570;50.854;13.778;2022-10-16T08:39:01;17.50;99.90
18876;DHT22;9570;50.854;13.778;2022-10-16T08:44:35;17.60;99.90
18876;DHT22;9570;50.854;13.778;2022-10-16T08:47:35;17.70;99.90
18876;DHT22;9570;50.854;13.778;2022-10-16T08:50:14;17.70;99.90
18876;DHT22;9570;50.854;13.778;2022-10-16T08:52:44;17.90;99.90
18876;DHT22;9570;50.854;13.778;2022-10-16T08:55:29;17.90;99.90
18876;DHT22;9570;50.854;13.778;2022-10-16T08:57:55;18.10;99.90
18876;DHT22;9570;50.854;13.778;2022-10-16T09:00:21;18.20;99.90
18876;DHT22;9570;50.854;13.778;2022-10-16T09:03:14;18.30;99.90
18876;DHT22;9570;50.854;13.778;2022-10-16T09:06:01;18.40;99.90
18876;DHT22;9570;50.854;13.778;2022-10-16T09:13:43;18.70;99.90
18876;DHT22;9570;50.854;13.778;2022-10-16T09:16:32;18.70;99.90
18876;DHT22;9570;50.854;13.778;2022-10-16T09:19:05;18.80;99.90
18876;DHT22;9570;50.854;13.778;2022-10-16T09:21:43;19.00;99.90
18876;DHT22;9570;50.854;13.778;2022-10-16T09:24:10;19.10;99.90
18876;DHT22;9570;50.854;13.778;2022-10-16T09:26:37;19.10;99.90
18876;DHT22;9570;50.854;13.778;2022-10-16T09:29:03;19.00;99.90
18876;DHT22;9570;50.854;13.778;2022-10-16T09:31:28;19.10;99.90
18876;DHT22;9570;50.854;13.778;2022-10-16T09:34:00;19.10;99.90
18876;DHT22;9570;50.854;13.778;2022-10-16T09:36:38;19.10;99.90
18876;DHT22;9570;50.854;13.778;2022-10-16T09:39:09;19.30;99.90
18876;DHT22;9570;50.854;13.778;2022-10-16T09:41:37;19.50;99.90
18876;DHT22;9570;50.854;13.778;2022-10-16T09:44:12;19.50;99.90
18876;DHT22;9570;50.854;13.778;2022-10-16T09:46:41;19.70;99.90
18876;DHT22;9570;50.854;13.778;2022-10-16T09:49:21;19.70;99.90
18876;DHT22;9570;50.854;13.778;2022-10-16T09:51:48;19.80;99.90
18876;DHT22;9570;50.854;13.778;2022-10-16T09:54:15;20.00;99.90
18876;DHT22;9570;50.854;13.778;2022-10-16T09:56:40;20.10;99.90
18876;DHT22;9570;50.854;13.778;2022-10-16T09:59:15;20.10;99.90
18876;DHT22;9570;50.854;13.778;2022-10-16T10:02:03;20.00;99.90
18876;DHT22;9570;50.854;13.778;2022-10-16T10:04:39;19.90;99.90
18876;DHT22;9570;50.854;13.778;2022-10-16T10:07:06;20.00;99.90
18876;DHT22;9570;50.854;13.778;2022-10-16T10:09:43;19.90;99.90
18876;DHT22;9570;50.854;13.778;2022-10-16T10:12:21;19.90;99.90
18876;DHT22;9570;50.854;13.778;2022-10-16T10:14:52;19.90;99.90
18876;DHT22;9570;50.854;13.778;2022-10-16T10:17:21;19.90;99.90
18876;DHT22;9570;50.854;13.778;2022-10-16T10:28:17;19.80;99.90
18876;DHT22;9570;50.854;13.778;2022-10-16T10:31:01;19.70;99.90
18876;DHT22;9570;50.854;13.778;2022-10-16T10:36:41;19.60;99.90
18876;DHT22;9570;50.854;13.778;2022-10-16T10:39:19;19.70;99.90
18876;DHT22;9570;50.854;13.778;2022-10-16T10:42:29;19.80;99.90
18876;DHT22;9570;50.854;13.778;2022-10-16T10:45:01;19.80;99.90
18876;DHT22;9570;50.854;13.778;2022-10-16T10:53:29;20.10;99.90
18876;DHT22;9570;50.854;13.778;2022-10-16T10:56:14;20.40;99.90
18876;DHT22;9570;50.854;13.778;2022-10-16T11:09:41;21.00;99.90
18876;DHT22;9570;50.854;13.778;2022-10-16T11:12:22;21.00;99.90
18876;DHT22;9570;50.854;13.778;2022-10-16T11:15:04;20.90;99.90
18876;DHT22;9570;50.854;13.778;2022-10-16T11:17:42;20.90;99.90
18876;DHT22;9570;50.854;13.778;2022-10-16T11:20:14;20.70;99.90
18876;DHT22;9570;50.854;13.778;2022-10-16T11:25:21;20.40;99.90
18876;DHT22;9570;50.854;13.778;2022-10-16T11:28:02;20.40;99.90
18876;DHT22;9570;50.854;13.778;2022-10-16T11:30:30;20.30;99.90
18876;DHT22;9570;50.854;13.778;2022-10-16T11:33:06;20.40;99.90
18876;DHT22;9570;50.854;13.778;2022-10-16T11:35:43;20.40;99.90
18876;DHT22;9570;50.854;13.778;2022-10-16T11:38:59;20.40;99.90
18876;DHT22;9570;50.854;13.778;2022-10-16T11:41:29;20.50;99.90
18876;DHT22;9570;50.854;13.778;2022-10-16T11:44:05;20.50;99.90
18876;DHT22;9570;50.854;13.778;2022-10-16T11:46:35;20.50;99.90
18876;DHT22;9570;50.854;13.778;2022-10-16T11:49:21;20.50;99.90
18876;DHT22;9570;50.854;13.778;2022-10-16T11:52:03;20.50;99.90
18876;DHT22;9570;50.854;13.778;2022-10-16T11:54:59;20.60;99.90
18876;DHT22;9570;50.854;13.778;2022-10-16T11:57:32;20.50;99.90
18876;DHT22;9570;50.854;13.778;2022-10-16T12:00:04;20.50;99.90
18876;DHT22;9570;50.854;13.778;2022-10-16T12:08:04;20.80;99.90
18876;DHT22;9570;50.854;13.778;2022-10-16T12:10:31;21.00;99.90
18876;DHT22;9570;50.854;13.778;2022-10-16T12:13:04;21.10;99.90
18876;DHT22;9570;50.854;13.778;2022-10-16T12:15:32;21.10;99.90
18876;DHT22;9570;50.854;13.778;2022-10-16T12:17:58;21.10;99.90
18876;DHT22;9570;50.854;13.778;2022-10-16T12:20:32;21.00;99.90
18876;DHT22;9570;50.854;13.778;2022-10-16T12:23:03;21.10;99.90
18876;DHT22;9570;50.854;13.778;2022-10-16T12:25:35;21.10;99.90
18876;DHT22;9570;50.854;13.778;2022-10-16T12:30:31;21.30;99.90
18876;DHT22;9570;50.854;13.778;2022-10-16T12:33:19;21.30;99.90
18876;DHT22;9570;50.854;13.778;2022-10-16T12:35:44;21.40;99.90
18876;DHT22;9570;50.854;13.778;2022-10-16T12:38:36;21.50;99.90
18876;DHT22;9570;50.854;13.778;2022-10-16T12:41:05;21.50;99.90
18876;DHT22;9570;50.854;13.778;2022-10-16T12:43:42;21.40;99.90
18876;DHT22;9570;50.854;13.778;2022-10-16T12:48:33;21.40;99.90
18876;DHT22;9570;50.854;13.778;2022-10-16T12:51:23;21.40;99.90
18876;DHT22;9570;50.854;13.778;2022-10-16T12:54:37;21.40;99.90
18876;DHT22;9570;50.854;13.778;2022-10-16T13:00:12;21.20;99.90
18876;DHT22;9570;50.854;13.778;2022-10-16T13:08:21;21.10;99.90
18876;DHT22;9570;50.854;13.778;2022-10-16T13:22:19;21.10;99.90
18876;DHT22;9570;50.854;13.778;2022-10-16T13:24:59;21.20;99.90
18876;DHT22;9570;50.854;13.778;2022-10-16T13:30:25;21.10;99.90
18876;DHT22;9570;50.854;13.778;2022-10-16T13:33:00;21.10;99.90
18876;DHT22;9570;50.854;13.778;2022-10-16T13:35:29;21.20;99.90
18876;DHT22;9570;50.854;13.778;2022-10-16T13:38:15;21.30;99.90
18876;DHT22;9570;50.854;13.778;2022-10-16T13:41:13;21.30;99.90
18876;DHT22;9570;50.854;13.778;2022-10-16T13:43:45;21.20;99.90
18876;DHT22;9570;50.854;13.778;2022-10-16T13:48:38;21.10;99.90
18876;DHT22;9570;50.854;13.778;2022-10-16T13:53:33;21.20;99.90
18876;DHT22;9570;50.854;13.778;2022-10-16T13:55:59;21.10;99.90
18876;DHT22;9570;50.854;13.778;2022-10-16T13:58:26;21.10;99.90
18876;DHT22;9570;50.854;13.778;2022-10-16T14:01:03;21.10;99.90
18876;DHT22;9570;50.854;13.778;2022-10-16T14:03:31;21.00;99.90
18876;DHT22;9570;50.854;13.778;2022-10-16T14:06:06;21.00;99.90
18876;DHT22;9570;50.854;13.778;2022-10-16T14:08:37;21.10;99.90
18876;DHT22;9570;50.854;13.778;2022-10-16T14:11:07;21.10;99.90
18876;DHT22;9570;50.854;13.778;2022-10-16T14:13:43;21.00;99.90
18876;DHT22;9570;50.854;13.778;2022-10-16T14:16:15;21.10;99.90
18876;DHT22;9570;50.854;13.778;2022-10-16T14:18:55;21.10;99.90
18876;DHT22;9570;50.854;13.778;2022-10-16T14:21:21;21.10;99.90
18876;DHT22;9570;50.854;13.778;2022-10-16T14:23:47;21.10;99.90
18876;DHT22;9570;50.854;13.778;2022-10-16T14:26:15;21.00;99.90
18876;DHT22;9570;50.854;13.778;2022-10-16T14:28:42;21.00;99.90
18876;DHT22;9570;50.854;13.778;2022-10-16T14:31:30;21.00;99.90
18876;DHT22;9570;50.854;13.778;2022-10-16T14:33:56;21.00;99.90
18876;DHT22;9570;50.854;13.778;2022-10-16T14:36:23;20.90;99.90
18876;DHT22;9570;50.854;13.778;2022-10-16T14:39:03;20.80;99.90
18876;DHT22;9570;50.854;13.778;2022-10-16T14:41:40;20.70;99.90
18876;DHT22;9570;50.854;13.778;2022-10-16T14:44:09;20.60;99.90
18876;DHT22;9570;50.854;13.778;2022-10-16T14:46:38;20.70;99.90
18876;DHT22;9570;50.854;13.778;2022-10-16T14:51:38;20.70;99.90
18876;DHT22;9570;50.854;13.778;2022-10-16T14:54:04;20.80;99.90
18876;DHT22;9570;50.854;13.778;2022-10-16T14:56:51;20.70;99.90
18876;DHT22;9570;50.854;13.778;2022-10-16T14:59:37;20.70;99.90
18876;DHT22;9570;50.854;13.778;2022-10-16T15:02:25;20.70;99.90
18876;DHT22;9570;50.854;13.778;2022-10-16T15:04:52;20.60;99.90
18876;DHT22;9570;50.854;13.778;2022-10-16T15:07:18;20.60;99.90
18876;DHT22;9570;50.854;13.778;2022-10-16T15:09:43;20.60;99.90
18876;DHT22;9570;50.854;13.778;2022-10-16T15:12:09;20.60;99.90
18876;DHT22;9570;50.854;13.778;2022-10-16T15:14:34;20.60;99.90
18876;DHT22;9570;50.854;13.778;2022-10-16T15:17:00;20.60;99.90
18876;DHT22;9570;50.854;13.778;2022-10-16T15:19:25;20.50;99.90
18876;DHT22;9570;50.854;13.778;2022-10-16T15:21:51;20.50;99.90
18876;DHT22;9570;50.854;13.778;2022-10-16T15:24:18;20.60;99.90
18876;DHT22;9570;50.854;13.778;2022-10-16T15:26:43;20.60;99.90
18876;DHT22;9570;50.854;13.778;2022-10-16T15:29:12;20.60;99.90
18876;DHT22;9570;50.854;13.778;2022-10-16T15:31:37;20.50;99.90
18876;DHT22;9570;50.854;13.778;2022-10-16T15:34:03;20.40;99.90
18876;DHT22;9570;50.854;13.778;2022-10-16T15:36:33;20.30;99.90
18876;DHT22;9570;50.854;13.778;2022-10-16T15:39:04;20.30;99.90
18876;DHT22;9570;50.854;13.778;2022-10-16T15:41:30;20.30;99.90
18876;DHT22;9570;50.854;13.778;2022-10-16T15:43:56;20.20;99.90
18876;DHT22;9570;50.854;13.778;2022-10-16T15:46:23;20.10;99.90
18876;DHT22;9570;50.854;13.778;2022-10-16T15:48:50;20.10;99.90
18876;DHT22;9570;50.854;13.778;2022-10-16T15:51:16;20.00;99.90
18876;DHT22;9570;50.854;13.778;2022-10-16T15:53:42;19.90;99.90
18876;DHT22;9570;50.854;13.778;2022-10-16T15:56:09;19.80;99.90
18876;DHT22;9570;50.854;13.778;2022-10-16T15:58:35;19.80;99.90
18876;DHT22;9570;50.854;13.778;2022-10-16T16:01:01;19.70;99.90
18876;DHT22;9570;50.854;13.778;2022-10-16T16:03:27;19.60;99.90
18876;DHT22;9570;50.854;13.778;2022-10-16T16:05:53;19.50;99.90
18876;DHT22;9570;50.854;13.778;2022-10-16T16:08:19;19.40;99.90
18876;DHT22;9570;50.854;13.778;2022-10-16T16:10:45;19.30;99.90
18876;DHT22;9570;50.854;13.778;2022-10-16T16:13:10;19.20;99.90
18876;DHT22;9570;50.854;13.778;2022-10-16T16:15:39;18.90;99.90
18876;DHT22;9570;50.854;13.778;2022-10-16T16:18:05;18.80;99.90
18876;DHT22;9570;50.854;13.778;2022-10-16T16:20:31;18.70;99.90
18876;DHT22;9570;50.854;13.778;2022-10-16T16:22:56;18.60;99.90
18876;DHT22;9570;50.854;13.778;2022-10-16T16:25:22;18.50;99.90
18876;DHT22;9570;50.854;13.778;2022-10-16T16:27:47;18.40;99.90
18876;DHT22;9570;50.854;13.778;2022-10-16T16:30:13;18.30;99.90
18876;DHT22;9570;50.854;13.778;2022-10-16T16:32:39;18.20;99.90
18876;DHT22;9570;50.854;13.778;2022-10-16T16:35:05;18.10;99.90
18876;DHT22;9570;50.854;13.778;2022-10-16T16:37:30;18.00;99.90
18876;DHT22;9570;50.854;13.778;2022-10-16T16:39:56;18.00;99.90
18876;DHT22;9570;50.854;13.778;2022-10-16T16:42:24;17.80;99.90
18876;DHT22;9570;50.854;13.778;2022-10-16T16:44:50;17.70;99.90
18876;DHT22;9570;50.854;13.778;2022-10-16T16:47:16;17.60;99.90
18876;DHT22;9570;50.854;13.778;2022-10-16T16:49:41;17.70;99.90
18876;DHT22;9570;50.854;13.778;2022-10-16T16:52:07;17.60;99.90
18876;DHT22;9570;50.854;13.778;2022-10-16T16:54:32;17.50;99.90
18876;DHT22;9570;50.854;13.778;2022-10-16T16:56:58;17.40;99.90
18876;DHT22;9570;50.854;13.778;2022-10-16T16:59:24;17.40;99.90
18876;DHT22;9570;50.854;13.778;2022-10-16T17:01:49;17.30;99.90
18876;DHT22;9570;50.854;13.778;2022-10-16T17:04:15;17.30;99.90
18876;DHT22;9570;50.854;13.778;2022-10-16T17:06:41;17.20;99.90
18876;DHT22;9570;50.854;13.778;2022-10-16T17:09:07;17.10;99.90
18876;DHT22;9570;50.854;13.778;2022-10-16T17:11:34;17.10;99.90
18876;DHT22;9570;50.854;13.778;2022-10-16T17:14:00;17.00;99.90
18876;DHT22;9570;50.854;13.778;2022-10-16T17:16:32;17.00;99.90
18876;DHT22;9570;50.854;13.778;2022-10-16T17:19:06;16.90;99.90